Detalii statie GENERAL AGRO [00001CEA]

Toti senzorii

Date Temperatura solului [C]Precipitatii [mm]Voltaj baterie [mV]HC Air temperature [C]HC Relative humidity [%]Punctul de roua [C]
medieminmaxsumaultimamedieminmaxmediemediemin
2019-10-19 23:00:00 14.2 14.2 14.4 0 6738 8.04 7.85 8.38 0 0 0
2019-10-19 23:30:00 14.2 14.2 14.2 0 6718 7.92 7.66 8.14 0 0 0
2019-10-20 00:00:00 14.1 14 14.2 0 6728 9.29 8.38 10.1 0 0 0
2019-10-20 00:30:00 14 13.9 14.1 0 6718 10.26 9.98 10.53 0 0 0
2019-10-20 01:00:00 14 14 14.1 0 6728 10.69 10.59 10.78 0 0 0
2019-10-20 01:30:00 14 14 14.1 0 6718 10.8 10.71 10.92 0 0 0
2019-10-20 02:00:00 14 14 14.1 0 6738 11.01 10.92 11.07 0 0 0
2019-10-20 02:30:00 14 14 14.1 0 6718 10.96 10.89 11.03 0 0 0
2019-10-20 03:00:00 14 14 14.1 0 6728 10.84 10.78 10.93 0 0 0
2019-10-20 03:30:00 14.1 14.1 14.1 0 6728 10.51 10.45 10.64 0 0 0
2019-10-20 04:00:00 14.1 14.1 14.2 0 6738 10.31 10.26 10.39 0 0 0
2019-10-20 04:30:00 14 13.9 14.1 0 6708 10.01 9.88 10.31 0 0 0
2019-10-20 05:00:00 14 14 14.1 0 6718 9.91 9.78 10.02 0 0 0
2019-10-20 05:30:00 14 13.9 14.1 0 6728 10.04 10 10.09 0 0 0
2019-10-20 06:00:00 14 14 14.1 0 6728 10.15 10.03 10.23 0 0 0
2019-10-20 06:30:00 14 13.9 14.1 0 6718 10.36 10.3 10.43 0 0 0
2019-10-20 07:00:00 14 14 14.1 0 6738 10.62 10.47 10.79 0 0 0
2019-10-20 07:30:00 14 14 14.1 0 6708 10.85 10.72 11.01 0 0 0
2019-10-20 08:00:00 14 13.9 14.1 0 6718 11.28 11.1 11.49 0 0 0
2019-10-20 08:30:00 14 14 14.1 0 6728 11.77 11.49 12.09 0 0 0
2019-10-20 09:00:00 14.1 14 14.2 0 6748 12.48 12.22 12.73 0 0 0
2019-10-20 09:30:00 14.1 14 14.2 0 6766 13.21 12.92 13.49 0 0 0
2019-10-20 10:00:00 14.3 14.2 14.4 0 6786 13.9 13.69 14.15 0 0 0
2019-10-20 10:30:00 14.4 14.3 14.6 0 6806 14.5 14.3 14.85 0 0 0
2019-10-20 11:00:00 14.5 14.4 14.7 0 6914 15.54 14.93 15.99 0 0 0
2019-10-20 11:30:00 14.7 14.7 14.9 0 7000 17.36 16.67 17.77 0 0 0
2019-10-20 12:00:00 14.9 14.8 15.1 0.2 7070 18.46 17.44 20.11 0 0 0
2019-10-20 12:30:00 15.2 15.1 15.3 0 7060 20.39 19.79 20.8 11.69 1.2 0
2019-10-20 13:00:00 15.4 15.3 15.5 0 7040 21.11 20.88 21.36 20.71 0
2019-10-20 13:30:00 15.6 15.5 15.8 0 7020 21.49 21.06 21.7 22.51 0
2019-10-20 14:00:00 15.9 15.8 16 0 6982 21.82 21.46 21.98 0 0 0
2019-10-20 14:30:00 16 16 16.2 0 6932 22.08 21.8 22.35 0 0 0
2019-10-20 15:00:00 16.2 16.1 16.3 0 6932 22.13 21.92 22.33 0 0 0
2019-10-20 15:30:00 16.3 16.2 16.5 0 6904 21.81 21.6 22.01 0 0 0
2019-10-20 16:00:00 16.3 16.2 16.4 0 6884 21.65 21.42 21.98 0 0 0
2019-10-20 16:30:00 16.4 16.3 16.5 0 6864 21 20.73 21.25 0 0 0
2019-10-20 17:00:00 16.4 16.2 16.7 0 6854 19.52 18.38 20.5 12.56 -3 0
2019-10-20 17:30:00 16.3 16.2 16.4 0 6844 17.6 16.82 18.14 13.17 0.6 0
2019-10-20 18:00:00 16.3 16.2 16.4 0 6834 16.4 16.09 16.81 0 0 0
2019-10-20 18:30:00 16.1 16 16.2 0 6834 16.12 15.9 16.35 0 0 0
2019-10-20 19:00:00 15.9 15.8 16 0 6834 16.01 15.69 16.27 0 0 0
2019-10-20 19:30:00 15.8 15.7 15.9 0 6816 14.77 14.21 15.29 0 0 0
2019-10-20 20:00:00 15.8 15.8 15.8 0 6806 13.89 13.28 14.68 3.51 0
2019-10-20 20:30:00 15.6 15.5 15.7 0 6796 13.64 13.22 14.02 0 0 0
2019-10-20 21:00:00 15.5 15.4 15.6 0 6806 12.27 11.56 13.5 0 0 0
2019-10-20 21:30:00 15.4 15.4 15.4 0 6786 11.22 10.88 11.52 0 0 0
2019-10-20 22:00:00 15.2 15.1 15.4 0 6796 11.08 10.92 11.28 0 0 0
2019-10-20 22:30:00 15.1 15 15.2 0 6786 11.44 11.3 11.57 0 0 0